»·PEaware :: N137AD KTOA-KVNY

N137AD :: KTOA-KVNY

FLIGHT INFORMATION

Flight Status: Arrived
Operator: Privately registered:
United States
More flights under this callsign
Pilot: Mike Z. (25595)
Aircraft: CESSNA 172 SKYHAWK
(C172)
More flights by this aircraft type
Origin: KTOA Zamperini
United States
Destination: KVNY Van Nuys
United States
More flights between these airports :: More routes between these airports
Route: KTOA VPLSR SMO KVNY
File this flight plan on PilotEdge
Remarks: CAT-10-A
Altitude:
(Current/Filed)
2,500ft
Speed:
(Current/Filed)
105kts
Departed: 17-Aug-19 11:53 AM
Arrived: 17-Aug-19 12:12 PM
Distance/Time
Traveled:
26nm/0:18
Distance/Time
To Go:
Arrived

Flight Plot

Page will automatically refresh every two minutes.

Flight plan parsing failed; only flown route is shown


Map Options




Map Legend


Flown Route
Filed Route
Departure Airport
Arrival Airport
Navaid (VOR, NDB)
Fix

Horizontal Profiles

Position Reports

Time Latitude Longitude Heading Altitude Ground
Speed
17-Aug-19 11:33 33.803347 -118.344052 39 102ft 0kts
17-Aug-19 11:34 33.803347 -118.344052 39 102ft 0kts
17-Aug-19 11:35 33.803347 -118.344052 39 102ft 0kts
17-Aug-19 11:36 33.803347 -118.344052 39 102ft 0kts
17-Aug-19 11:37 33.803347 -118.344052 39 102ft 0kts
17-Aug-19 11:38 33.803347 -118.344052 39 102ft 0kts
17-Aug-19 11:39 33.803347 -118.344052 39 102ft 0kts
17-Aug-19 11:40 33.803347 -118.344052 39 102ft 0kts
17-Aug-19 11:41 33.803347 -118.344052 39 102ft 0kts
17-Aug-19 11:42 33.803081 -118.343228 130 103ft 17kts
17-Aug-19 11:43 33.802250 -118.340923 127 102ft 15kts
17-Aug-19 11:44 33.799431 -118.336660 128 104ft 10kts
17-Aug-19 11:45 33.798211 -118.334077 39 104ft 7kts
17-Aug-19 11:46 33.798919 -118.333216 110 101ft 0kts
17-Aug-19 11:47 33.798919 -118.333216 110 101ft 0kts
17-Aug-19 11:48 33.798919 -118.333216 110 101ft 0kts
17-Aug-19 11:49 33.798919 -118.333216 110 101ft 0kts
17-Aug-19 11:50 33.799157 -118.333233 31 100ft 0kts
17-Aug-19 11:51 33.799157 -118.333233 31 100ft 0kts
17-Aug-19 11:52 33.801926 -118.336403 310 98ft 70kts
17-Aug-19 11:53 33.815453 -118.356333 330 761ft 78kts
17-Aug-19 11:54 33.835574 -118.350038 348 1446ft 76kts
17-Aug-19 11:55 33.857838 -118.350359 3 2068ft 80kts
17-Aug-19 11:56 33.880314 -118.352433 352 2545ft 85kts
17-Aug-19 11:57 33.903960 -118.361841 356 2633ft 95kts
17-Aug-19 11:58 33.928209 -118.376578 329 2492ft 96kts
17-Aug-19 11:59 33.953851 -118.398150 320 2495ft 124kts
17-Aug-19 12:00 33.980937 -118.424734 319 2494ft 124kts
17-Aug-19 12:01 34.007369 -118.451480 318 2496ft 123kts
17-Aug-19 12:02 34.040727 -118.459522 356 2496ft 126kts
17-Aug-19 12:03 34.075907 -118.461640 349 2496ft 126kts
17-Aug-19 12:04 34.109132 -118.468397 348 2496ft 126kts
17-Aug-19 12:05 34.142131 -118.479182 339 2495ft 117kts
17-Aug-19 12:06 34.173805 -118.494490 335 2147ft 131kts
17-Aug-19 12:07 34.208491 -118.502089 355 1629ft 109kts
17-Aug-19 12:08 34.230914 -118.503019 355 1834ft 82kts
17-Aug-19 12:09 34.244109 -118.493554 136 1853ft 75kts
17-Aug-19 12:10 34.224817 -118.491747 176 1100ft 66kts
17-Aug-19 12:11 34.209412 -118.490477 186 806ft 21kts
17-Aug-19 12:12 34.208061 -118.491369 337 806ft 5kts
17-Aug-19 12:13 34.211687 -118.491718 355 806ft 12kts
17-Aug-19 12:14 34.214538 -118.491997 354 806ft 17kts
17-Aug-19 12:15 34.217485 -118.493235 327 806ft 4kts
17-Aug-19 12:16 34.217719 -118.493114 86 806ft 0kts
17-Aug-19 12:17 34.217719 -118.493114 86 806ft 0kts
17-Aug-19 12:18 34.217719 -118.493114 86 806ft 0kts
17-Aug-19 12:19 34.217719 -118.493114 86 806ft 0kts
17-Aug-19 12:20 34.217719 -118.493114 86 806ft 0kts
17-Aug-19 12:21 34.217719 -118.493114 86 806ft 0kts
17-Aug-19 12:22 34.217719 -118.493114 86 806ft 0kts
17-Aug-19 12:23 34.217719 -118.493114 86 806ft 0kts
17-Aug-19 12:24 34.217719 -118.493114 86 806ft 0kts
17-Aug-19 12:25 34.217719 -118.493114 86 806ft 0kts

Navigation Log

Ident Type
Flight plan parsing failed, navigation log unavailable